Etusivu
METAR-TAF:

METAR-TAF

Lentoasemat :

Dease Lake, Brittiläinen Kolumbia, Kanada

Leveyspiiri: 58-25-20N, Pituuspiiri: 130-01-53W, korkeus merenpinnasta: 803 m

Tämänhetkinen sää

Tämä raportti tehtiin 30 minuuttia sitten, kello 12.00 UTC
Tuuli 3 kn lännestä/lounaasta, vaihdellen etelän/lounaan ja lännen/luoteen välillä
Lämpötila -2°C
Kosteus 100%
Ilmanpaine 1009 hPa
Näkyvyys: 14.5 km
Muutamia pilviä 11000 ft:n korkeudessa
Hajonneita pilviä 16000 ft:n korkeudessa

METAR: CYDL 181200Z AUTO 24003KT 210V290 9SM FEW110 BKN160 M02/M02 A2979 RMK SLP110

Aika: 04:30 (12:30 UTC)

Sääennuste

Tämä raportti tehtiin 12 tuntia ja 51 minuuttia sitten, kello 23.39 UTC
Ennuste voimassa 18. päivästä klo 00 UTC - 18. päivään klo 03 UTC
Tuuli 8 kn lännestä
Näkyvyys: 10 km
Hajanaisia pilviä 2000 ft:n korkeudessa
Hajonneita pilviä 6000 ft:n korkeudessa

TAF: CYDL 172339Z 1800/1803 26008KT P6SM SCT020 BKN060 RMK FCST BASED ON AUTO OBS. NXT FCST WILL BE ISSUED AT 181645Z

Säähavainnot ja -ennusteet yli 4000 lentoasemalta (METAR- ja TAF-raportit).

Käytössä olevat sääasemat on merkitty karttaan keltaisilla ja punaisilla pisteillä.

Aseta hiiri pisteen päälle nähdäksesi sääaseman nimen.

Klikkaa sitten nähdäksesi säähavainnot ja -ennusteet.

Kartan vaihtaminen: klikkaa mustalla rastilla varustettuja vihreitä pisteitä, niin voit zoomata sisään; viivalla varustettua vihreää pistettä, niin voit zoomata ulos tai vihreitä nuolia, niin pääset viereisille kartoille.


METAR-TAF: